Time;durP1;ratioP1;P1;durP2;ratioP2;P2;SDS_P1;SDS_P2;PMS_P1;PMS_P2;Temp;Humidity;BMP_temperature;BMP_pressure;BME280_temperature;BME280_humidity;BME280_pressure;Samples;Min_cycle;Max_cycle;Signal;HPM_P1;HPM_P2
2021/07/19 00:00:20;;;;;;;;;;;;;;;16.27;100.00;96259.53;1053105;28;19988;-46
2021/07/19 00:00:51;;;;;;;;;;;;;;;16.26;100.00;96259.78;1053148;28;20245;-45
2021/07/19 00:01:21;;;;;;;;;;;;;;;16.24;100.00;96264.50;1053082;28;19918;-45
2021/07/19 00:01:51;;;;;;;;;;;;;;;16.20;100.00;96261.50;1053106;28;19977;-46
2021/07/19 00:02:22;;;;;;;;;;;;;;;16.19;100.00;96254.56;1053235;28;19910;-45
2021/07/19 00:02:56;;;;;;;;;;;;;;;16.18;100.00;96260.91;1053092;28;19908;-46
2021/07/19 00:03:26;;;;;;;;;;;;;;;16.21;100.00;96260.47;1053178;28;20383;-46
2021/07/19 00:03:57;;;;;;;;;;;;;;;16.19;100.00;96259.09;1052705;28;19915;-45
2021/07/19 00:04:30;;;;;;;;;;;;;;;16.16;100.00;96263.00;1053183;28;19919;-45
2021/07/19 00:05:00;;;;;;;;;;;;;;;16.16;100.00;96265.66;1054212;28;19920;-46
2021/07/19 00:05:30;;;;;;;;;;;;;;;16.12;100.00;96262.66;1054171;28;20274;-50
2021/07/19 00:06:01;;;;;;;;;;;;;;;16.09;100.00;96262.28;1054023;28;19966;-48
2021/07/19 00:06:31;;;;;;;;;;;;;;;16.10;100.00;96266.56;1052058;28;19923;-45
2021/07/19 00:07:01;;;;;;;;;;;;;;;16.12;100.00;96264.47;1051148;28;20292;-46
2021/07/19 00:07:32;;;;;;;;;;;;;;;16.16;100.00;96263.00;1050081;28;19913;-49
2021/07/19 00:08:02;;;;;;;;;;;;;;;16.16;100.00;96261.13;1050321;28;19919;-46
2021/07/19 00:08:32;;;;;;;;;;;;;;;16.20;100.00;96266.81;1052173;28;19961;-47
2021/07/19 00:09:03;;;;;;;;;;;;;;;16.20;100.00;96263.34;1050694;28;19912;-49
2021/07/19 00:09:33;;;;;;;;;;;;;;;16.20;100.00;96266.81;1051457;28;20385;-46
2021/07/19 00:10:04;;;;;;;;;;;;;;;16.17;100.00;96262.78;1050987;28;20299;-44
2021/07/19 00:10:34;;;;;;;;;;;;;;;16.16;100.00;96268.31;1052822;28;19908;-46
2021/07/19 00:11:05;;;;;;;;;;;;;;;16.16;100.00;96261.13;1052978;28;19904;-46
2021/07/19 00:11:36;;;;;;;;;;;;;;;16.18;100.00;96263.56;1052833;28;19931;-46
2021/07/19 00:12:06;;;;;;;;;;;;;;;16.24;100.00;96259.19;1052908;28;20045;-46
2021/07/19 00:12:37;;;;;;;;;;;;;;;16.25;100.00;96269.59;1050122;28;19913;-45
2021/07/19 00:13:07;;;;;;;;;;;;;;;16.23;100.00;96265.53;1050081;28;19923;-48
2021/07/19 00:13:37;;;;;;;;;;;;;;;16.23;100.00;96258.41;1051451;28;20280;-46
2021/07/19 00:14:08;;;;;;;;;;;;;;;16.20;100.00;96264.16;1051481;28;20261;-44
2021/07/19 00:14:38;;;;;;;;;;;;;;;16.16;100.00;96263.00;1050107;28;19988;-46
2021/07/19 00:15:15;;;;;;;;;;;;;;;16.16;100.00;96263.78;1050126;28;19912;-45
2021/07/19 00:15:46;;;;;;;;;;;;;;;16.17;100.00;96265.44;1050227;28;19962;-46
2021/07/19 00:16:16;;;;;;;;;;;;;;;16.21;100.00;96267.63;1051453;28;19989;-46
2021/07/19 00:16:46;;;;;;;;;;;;;;;16.19;100.00;96267.06;1050981;28;19916;-45
2021/07/19 00:17:17;;;;;;;;;;;;;;;16.11;100.00;96262.84;1049554;28;19979;-45
2021/07/19 00:17:47;;;;;;;;;;;;;;;16.04;100.00;96268.25;1050069;28;19917;-47
2021/07/19 00:18:17;;;;;;;;;;;;;;;16.06;100.00;96266.19;1051413;28;19908;-46
2021/07/19 00:18:48;;;;;;;;;;;;;;;16.08;100.00;96266.78;1051486;28;19934;-46
2021/07/19 00:19:18;;;;;;;;;;;;;;;16.07;100.00;96269.66;1050180;28;19999;-45
2021/07/19 00:19:49;;;;;;;;;;;;;;;16.07;100.00;96264.34;1049974;28;19909;-46
2021/07/19 00:20:20;;;;;;;;;;;;;;;16.02;100.00;96264.22;1051090;28;19912;-47
2021/07/19 00:20:50;;;;;;;;;;;;;;;16.04;100.00;96262.16;1051492;28;19919;-45
2021/07/19 00:21:21;;;;;;;;;;;;;;;16.04;100.00;96259.50;1050532;28;19912;-46
2021/07/19 00:21:51;;;;;;;;;;;;;;;16.02;100.00;96265.03;1052883;28;20018;-45
2021/07/19 00:22:21;;;;;;;;;;;;;;;16.01;100.00;96262.59;1052863;28;19918;-45
2021/07/19 00:22:52;;;;;;;;;;;;;;;15.99;100.00;96254.88;1052842;28;19933;-48
2021/07/19 00:23:22;;;;;;;;;;;;;;;16.01;100.00;96262.59;1052788;28;19912;-47
2021/07/19 00:23:52;;;;;;;;;;;;;;;16.03;100.00;96261.31;1052852;28;19912;-46
2021/07/19 00:24:23;;;;;;;;;;;;;;;16.03;100.00;96263.97;1052249;28;19912;-45
2021/07/19 00:24:53;;;;;;;;;;;;;;;15.95;100.00;96259.81;1052489;28;19916;-48
2021/07/19 00:25:24;;;;;;;;;;;;;;;15.95;100.00;96251.84;1052498;28;19908;-46
2021/07/19 00:25:54;;;;;;;;;;;;;;;15.97;100.00;96264.88;1048452;28;19995;-46
2021/07/19 00:26:25;;;;;;;;;;;;;;;16.04;100.00;96257.66;1052407;28;19916;-46
2021/07/19 00:26:55;;;;;;;;;;;;;;;15.93;100.00;96261.88;1052423;28;20003;-46
2021/07/19 00:27:25;;;;;;;;;;;;;;;15.94;100.00;96263.50;1052442;28;19964;-48
2021/07/19 00:27:56;;;;;;;;;;;;;;;15.90;100.00;96262.34;1052476;28;19954;-45
2021/07/19 00:28:26;;;;;;;;;;;;;;;15.92;100.00;96256.81;1052572;28;19931;-45
2021/07/19 00:28:56;;;;;;;;;;;;;;;15.92;100.00;96260.25;1052465;28;19977;-45
2021/07/19 00:29:26;;;;;;;;;;;;;;;15.96;100.00;96263.28;1052820;28;19918;-45
2021/07/19 00:29:57;;;;;;;;;;;;;;;16.03;100.00;96256.00;1052768;28;19920;-45
2021/07/19 00:30:27;;;;;;;;;;;;;;;16.03;100.00;96257.88;1052936;28;19967;-48
2021/07/19 00:30:58;;;;;;;;;;;;;;;15.97;100.00;96257.75;1049970;28;20292;-46
2021/07/19 00:31:32;;;;;;;;;;;;;;;15.96;100.00;96260.63;1052842;28;19924;-47
2021/07/19 00:32:02;;;;;;;;;;;;;;;15.98;100.00;96256.69;1052771;28;19924;-48
2021/07/19 00:32:33;;;;;;;;;;;;;;;16.00;100.00;96256.47;1052833;28;20387;-46
2021/07/19 00:33:03;;;;;;;;;;;;;;;16.07;100.00;96253.72;1052931;28;19973;-46
2021/07/19 00:33:34;;;;;;;;;;;;;;;16.06;100.00;96263.53;1052742;28;19912;-46
2021/07/19 00:34:04;;;;;;;;;;;;;;;16.02;100.00;96254.41;1052872;28;19999;-46
2021/07/19 00:34:35;;;;;;;;;;;;;;;16.02;100.00;96258.91;1052618;28;19919;-46
2021/07/19 00:35:06;;;;;;;;;;;;;;;15.96;100.00;96255.31;1052808;28;19966;-45
2021/07/19 00:35:36;;;;;;;;;;;;;;;15.91;100.00;96263.97;1052688;28;19912;-45
2021/07/19 00:36:06;;;;;;;;;;;;;;;15.86;100.00;96263.81;1052797;28;19919;-45
2021/07/19 00:36:37;;;;;;;;;;;;;;;15.88;100.00;96261.75;1052731;28;19920;-45
2021/07/19 00:37:07;;;;;;;;;;;;;;;15.88;100.00;96263.59;1052700;28;19946;-46
2021/07/19 00:37:37;;;;;;;;;;;;;;;15.84;100.00;96255.28;1048255;28;19934;-45
2021/07/19 00:38:07;;;;;;;;;;;;;;;15.80;100.00;96256.75;1048162;28;19928;-46
2021/07/19 00:38:38;;;;;;;;;;;;;;;15.78;100.00;96256.97;1048333;28;19966;-45
2021/07/19 00:39:09;;;;;;;;;;;;;;;15.79;100.00;96252.47;1048822;28;19924;-45
2021/07/19 00:39:39;;;;;;;;;;;;;;;15.78;100.00;96254.31;1051590;28;20360;-45
2021/07/19 00:40:10;;;;;;;;;;;;;;;15.78;100.00;96253.53;1051756;28;19959;-45
2021/07/19 00:40:41;;;;;;;;;;;;;;;15.81;100.00;96258.38;1051082;28;19912;-45
2021/07/19 00:41:11;;;;;;;;;;;;;;;15.79;100.00;96253.28;1050829;28;20571;-46
2021/07/19 00:41:41;;;;;;;;;;;;;;;15.79;100.00;96255.13;1051683;28;20619;-45
2021/07/19 00:42:12;;;;;;;;;;;;;;;15.75;100.00;96252.09;1052077;28;19931;-45
2021/07/19 00:42:44;;;;;;;;;;;;;;;15.84;100.00;96252.63;1051401;28;19921;-49
2021/07/19 00:43:14;;;;;;;;;;;;;;;15.90;100.00;96254.38;1050820;28;19913;-45
2021/07/19 00:43:44;;;;;;;;;;;;;;;15.90;100.00;96251.72;1051256;28;19912;-45
2021/07/19 00:44:17;;;;;;;;;;;;;;;15.87;100.00;96254.81;1051812;28;20289;-45
2021/07/19 00:44:47;;;;;;;;;;;;;;;15.85;100.00;96256.06;1052159;28;19964;-48
2021/07/19 00:45:24;;;;;;;;;;;;;;;15.89;100.00;96250.09;1050804;28;19958;-46
2021/07/19 00:45:54;;;;;;;;;;;;;;;15.90;100.00;96250.91;1058956;27;19912;-45
2021/07/19 00:46:24;;;;;;;;;;;;;;;15.87;100.00;96251.38;1059242;27;20280;-45
2021/07/19 00:46:55;;;;;;;;;;;;;;;15.83;100.00;96251.00;1060333;27;20347;-47
2021/07/19 00:47:25;;;;;;;;;;;;;;;15.85;100.00;96254.25;1059419;27;19912;-45
2021/07/19 00:47:56;;;;;;;;;;;;;;;15.88;100.00;96250.31;1058961;27;19919;-48
2021/07/19 00:48:26;;;;;;;;;;;;;;;15.84;100.00;96252.63;1059043;27;19969;-46
2021/07/19 00:48:56;;;;;;;;;;;;;;;15.80;100.00;96251.44;1060350;27;19951;-48
2021/07/19 00:49:29;;;;;;;;;;;;;;;15.84;100.00;96244.66;1055802;28;19908;-46
2021/07/19 00:49:59;;;;;;;;;;;;;;;15.85;100.00;96248.94;1054986;28;20464;-46
2021/07/19 00:50:32;;;;;;;;;;;;;;;15.87;100.00;96254.81;1050359;28;19968;-49
2021/07/19 00:51:02;;;;;;;;;;;;;;;15.91;100.00;96248.03;1051797;28;19965;-48
2021/07/19 00:51:32;;;;;;;;;;;;;;;15.91;100.00;96241.91;1051441;28;20365;-50
2021/07/19 00:52:03;;;;;;;;;;;;;;;15.85;100.00;96243.63;1047370;28;20273;-47
2021/07/19 00:52:33;;;;;;;;;;;;;;;15.89;100.00;96244.78;1050486;28;19986;-47
2021/07/19 00:53:07;;;;;;;;;;;;;;;15.93;100.00;96245.16;1051125;28;19912;-49
2021/07/19 00:53:37;;;;;;;;;;;;;;;15.87;100.00;96240.75;1052277;28;19989;-46
2021/07/19 00:54:08;;;;;;;;;;;;;;;15.83;100.00;96251.00;1052066;28;20241;-48
2021/07/19 00:54:38;;;;;;;;;;;;;;;15.79;100.00;96253.28;1046143;28;19924;-46
2021/07/19 00:55:09;;;;;;;;;;;;;;;15.77;100.00;96246.53;1046311;28;20023;-45
2021/07/19 00:55:46;;;;;;;;;;;;;;;15.81;100.00;96253.06;1047463;28;19913;-45
2021/07/19 00:56:16;;;;;;;;;;;;;;;15.81;100.00;96250.41;1048651;28;20239;-47
2021/07/19 00:56:46;;;;;;;;;;;;;;;15.73;100.00;96248.84;1051898;28;19912;-45
2021/07/19 00:57:17;;;;;;;;;;;;;;;15.68;100.00;96245.25;1050651;28;19912;-46
2021/07/19 00:57:47;;;;;;;;;;;;;;;15.66;100.00;96239.34;1058975;27;19950;-46
2021/07/19 00:58:18;;;;;;;;;;;;;;;15.67;100.00;96244.44;1056013;28;20345;-48
2021/07/19 00:58:48;;;;;;;;;;;;;;;15.68;100.00;96248.69;1055861;28;19943;-46
2021/07/19 00:59:19;;;;;;;;;;;;;;;15.71;100.00;96244.78;1054635;28;19919;-45
2021/07/19 00:59:49;;;;;;;;;;;;;;;15.77;100.00;96247.38;1050323;28;19912;-46
2021/07/19 01:00:20;;;;;;;;;;;;;;;15.81;100.00;96251.22;1051572;28;19908;-48
2021/07/19 01:00:53;;;;;;;;;;;;;;;15.85;100.00;96245.44;1052034;28;19912;-49
2021/07/19 01:01:23;;;;;;;;;;;;;;;15.81;100.00;96247.75;1051427;28;19962;-49
2021/07/19 01:01:54;;;;;;;;;;;;;;;15.77;100.00;96250.03;1053551;28;19908;-45
2021/07/19 01:02:24;;;;;;;;;;;;;;;15.77;100.00;96244.72;1053513;28;20326;-45
2021/07/19 01:02:55;;;;;;;;;;;;;;;15.75;100.00;96249.44;1053040;28;19995;-48
2021/07/19 01:03:25;;;;;;;;;;;;;;;15.78;100.00;96245.56;1049007;28;20007;-46
2021/07/19 01:03:56;;;;;;;;;;;;;;;15.82;100.00;96249.38;1050395;28;20419;-46
2021/07/19 01:04:26;;;;;;;;;;;;;;;15.81;100.00;96253.88;1046386;28;19909;-46
2021/07/19 01:04:56;;;;;;;;;;;;;;;15.76;100.00;96245.75;1047528;28;19912;-45
2021/07/19 01:05:27;;;;;;;;;;;;;;;15.73;100.00;96245.38;1051645;28;20416;-46
2021/07/19 01:05:57;;;;;;;;;;;;;;;15.71;100.00;96244.78;1050445;28;19964;-49
2021/07/19 01:06:30;;;;;;;;;;;;;;;15.70;100.00;96249.31;1053284;28;19957;-45
2021/07/19 01:07:02;;;;;;;;;;;;;;;15.76;100.00;96239.59;1052470;28;20233;-49
2021/07/19 01:07:32;;;;;;;;;;;;;;;15.74;100.00;96247.78;1053851;28;20000;-47
2021/07/19 01:08:03;;;;;;;;;;;;;;;15.73;100.00;96248.03;1055906;28;19945;-50
2021/07/19 01:08:33;;;;;;;;;;;;;;;15.73;100.00;96251.50;1054707;27;19987;-45
2021/07/19 01:09:05;;;;;;;;;;;;;;;15.73;100.00;96248.03;1059359;27;19908;-45
2021/07/19 01:09:35;;;;;;;;;;;;;;;15.75;100.00;96249.44;1059604;27;19927;-45
2021/07/19 01:10:06;;;;;;;;;;;;;;;15.75;100.00;96251.28;1051721;28;19962;-49
2021/07/19 01:10:36;;;;;;;;;;;;;;;15.74;100.00;96245.16;1050712;28;19988;-45
2021/07/19 01:11:07;;;;;;;;;;;;;;;15.72;100.00;96247.22;1053484;28;19915;-47
2021/07/19 01:11:37;;;;;;;;;;;;;;;15.73;100.00;96253.34;1053384;28;19908;-47
2021/07/19 01:12:07;;;;;;;;;;;;;;;15.71;100.00;96247.44;1053538;28;20089;-45
2021/07/19 01:12:38;;;;;;;;;;;;;;;15.71;100.00;96253.56;1050621;28;19915;-45
2021/07/19 01:13:08;;;;;;;;;;;;;;;15.66;100.00;96248.13;1050627;28;19917;-49
2021/07/19 01:13:39;;;;;;;;;;;;;;;15.64;100.00;96253.66;1050326;28;20261;-50
2021/07/19 01:14:09;;;;;;;;;;;;;;;15.62;100.00;96247.78;1054493;28;19999;-46
2021/07/19 01:14:39;;;;;;;;;;;;;;;15.59;100.00;96255.34;1055641;28;19930;-48
2021/07/19 01:15:10;;;;;;;;;;;;;;;15.57;100.00;96249.47;1055780;28;19928;-50
2021/07/19 01:15:40;;;;;;;;;;;;;;;15.53;100.00;96257.06;1058867;27;20329;-46
2021/07/19 01:16:10;;;;;;;;;;;;;;;15.51;100.00;96253.81;1050622;28;20307;-45
2021/07/19 01:16:41;;;;;;;;;;;;;;;15.51;100.00;96250.38;1051740;28;19914;-47
2021/07/19 01:17:11;;;;;;;;;;;;;;;15.52;100.00;96258.09;1051572;28;19915;-46
2021/07/19 01:17:41;;;;;;;;;;;;;;;15.50;100.00;96254.88;1050851;28;19961;-47
2021/07/19 01:18:12;;;;;;;;;;;;;;;15.45;100.00;96252.06;1050261;28;19912;-46
2021/07/19 01:18:42;;;;;;;;;;;;;;;15.40;100.00;96252.72;1055542;28;20283;-51
2021/07/19 01:19:12;;;;;;;;;;;;;;;15.40;100.00;96255.38;1055882;28;20002;-50
2021/07/19 01:19:44;;;;;;;;;;;;;;;15.39;100.00;96252.94;1055043;28;20048;-46
2021/07/19 01:20:14;;;;;;;;;;;;;;;15.34;100.00;96256.25;1054055;28;19911;-47
2021/07/19 01:20:51;;;;;;;;;;;;;;;15.34;100.00;96253.59;1055255;28;20257;-46
2021/07/19 01:21:21;;;;;;;;;;;;;;;15.34;100.00;96258.13;1054889;28;20264;-47
2021/07/19 01:21:57;;;;;;;;;;;;;;;15.27;100.00;96251.03;1054524;28;19923;-45
2021/07/19 01:22:44;;;;;;;;;;;;;;;15.27;100.00;96253.69;1048699;28;19920;-48
2021/07/19 01:23:24;;;;;;;;;;;;;;;15.23;100.00;96257.03;1051933;28;19962;-47
2021/07/19 01:23:57;;;;;;;;;;;;;;;15.22;100.00;96258.03;1053027;28;19919;-46
2021/07/19 01:24:45;;;;;;;;;;;;;;;15.23;100.00;96262.31;1058370;27;20392;-47
2021/07/19 01:25:19;;;;;;;;;;;;;;;15.21;100.00;96259.88;1060045;27;19912;-46
2021/07/19 01:25:52;;;;;;;;;;;;;;;15.30;100.00;96256.94;1060015;27;19919;-46
2021/07/19 01:26:38;;;;;;;;;;;;;;;15.34;100.00;96263.44;1052703;28;19973;-47
2021/07/19 01:27:14;;;;;;;;;;;;;;;15.34;100.00;96260.78;1051865;28;19928;-48
2021/07/19 01:27:57;;;;;;;;;;;;;;;15.30;100.00;96254.28;1051356;28;19904;-49
2021/07/19 01:28:30;;;;;;;;;;;;;;;15.28;100.00;96251.84;1051888;28;19905;-49
2021/07/19 01:29:01;;;;;;;;;;;;;;;15.23;100.00;96260.47;1052921;28;19993;-48
2021/07/19 01:29:31;;;;;;;;;;;;;;;15.20;100.00;96258.25;1053066;28;20033;-47
2021/07/19 01:30:02;;;;;;;;;;;;;;;15.22;100.00;96258.84;1048882;28;19904;-50
2021/07/19 01:30:32;;;;;;;;;;;;;;;15.28;100.00;96255.31;1048933;28;19909;-45
2021/07/19 01:31:04;;;;;;;;;;;;;;;15.27;100.00;96263.47;1051165;28;19912;-49
2021/07/19 01:31:39;;;;;;;;;;;;;;;15.25;100.00;96255.75;1051935;28;20258;-49
2021/07/19 01:32:09;;;;;;;;;;;;;;;15.21;100.00;96262.53;1052997;28;19919;-50
2021/07/19 01:32:41;;;;;;;;;;;;;;;15.14;100.00;96259.16;1049510;28;19916;-50
2021/07/19 01:33:11;;;;;;;;;;;;;;;15.14;100.00;96253.84;1051132;28;20282;-46
2021/07/19 01:33:47;;;;;;;;;;;;;;;15.13;100.00;96252.22;1057442;28;19914;-46
2021/07/19 01:34:19;;;;;;;;;;;;;;;15.14;100.00;96256.50;1055401;27;20429;-45
2021/07/19 01:34:49;;;;;;;;;;;;;;;15.12;100.00;96260.38;1056944;27;19960;-46
2021/07/19 01:35:20;;;;;;;;;;;;;;;15.22;100.00;96255.38;1051904;28;19908;-46
2021/07/19 01:35:50;;;;;;;;;;;;;;;15.29;100.00;96250.81;1055968;28;19904;-47
2021/07/19 01:36:22;;;;;;;;;;;;;;;15.24;100.00;96251.50;1050671;28;20019;-46
2021/07/19 01:36:54;;;;;;;;;;;;;;;15.24;100.00;96254.16;1054628;28;20684;-46
2021/07/19 01:37:25;;;;;;;;;;;;;;;15.23;100.00;96246.41;1055235;28;20017;-45
2021/07/19 01:37:58;;;;;;;;;;;;;;;15.27;100.00;96255.53;1052257;28;20230;-44
2021/07/19 01:38:29;;;;;;;;;;;;;;;15.22;100.00;96253.53;1055207;28;19914;-47
2021/07/19 01:38:59;;;;;;;;;;;;;;;15.21;100.00;96253.75;1050308;28;19912;-48
2021/07/19 01:39:32;;;;;;;;;;;;;;;15.20;100.00;96246.84;1053084;28;19904;-48
2021/07/19 01:40:03;;;;;;;;;;;;;;;15.13;100.00;96248.75;1053447;28;19924;-47
2021/07/19 01:40:33;;;;;;;;;;;;;;;15.09;100.00;96251.03;1050527;28;20343;-47
2021/07/19 01:41:03;;;;;;;;;;;;;;;15.12;100.00;96250.56;1059523;27;19911;-48
2021/07/19 01:41:34;;;;;;;;;;;;;;;15.09;100.00;96246.53;1055775;28;19916;-48
2021/07/19 01:42:05;;;;;;;;;;;;;;;15.13;100.00;96244.25;1055177;28;19961;-46
2021/07/19 01:42:36;;;;;;;;;;;;;;;15.12;100.00;96239.16;1054030;28;20351;-49
2021/07/19 01:43:07;;;;;;;;;;;;;;;15.18;100.00;96247.03;1052959;28;19956;-48
2021/07/19 01:43:37;;;;;;;;;;;;;;;15.13;100.00;96241.59;1048953;28;20038;-46
2021/07/19 01:44:08;;;;;;;;;;;;;;;15.17;100.00;96241.97;1048741;28;19912;-45
2021/07/19 01:44:38;;;;;;;;;;;;;;;15.17;100.00;96242.78;1048674;28;19938;-47
2021/07/19 01:45:09;;;;;;;;;;;;;;;15.12;100.00;96242.63;1050363;28;20065;-48
2021/07/19 01:45:39;;;;;;;;;;;;;;;15.08;100.00;96241.47;1051765;28;19912;-46
2021/07/19 01:46:09;;;;;;;;;;;;;;;15.08;100.00;96241.47;1055768;28;19934;-47
2021/07/19 01:46:39;;;;;;;;;;;;;;;15.16;100.00;96235.06;1050161;28;19912;-46
2021/07/19 01:47:10;;;;;;;;;;;;;;;15.12;100.00;96239.97;1045872;28;19913;-47
2021/07/19 01:47:40;;;;;;;;;;;;;;;15.06;100.00;96235.56;1055638;28;19919;-46
2021/07/19 01:48:10;;;;;;;;;;;;;;;15.01;100.00;96244.16;1051465;28;19912;-46
2021/07/19 01:48:41;;;;;;;;;;;;;;;15.04;100.00;96237.63;1054629;28;19920;-47
2021/07/19 01:49:11;;;;;;;;;;;;;;;15.03;100.00;96241.28;1054242;28;19966;-47
2021/07/19 01:49:41;;;;;;;;;;;;;;;15.04;100.00;96240.28;1051164;28;19957;-48
2021/07/19 01:50:12;;;;;;;;;;;;;;;15.13;100.00;96238.94;1051437;28;19958;-46
2021/07/19 01:50:42;;;;;;;;;;;;;;;15.10;100.00;96237.53;1050540;28;19916;-47
2021/07/19 01:51:12;;;;;;;;;;;;;;;15.19;100.00;96239.91;1050130;28;19916;-46
2021/07/19 01:51:43;;;;;;;;;;;;;;;15.14;100.00;96237.94;1051135;28;19991;-47
2021/07/19 01:52:13;;;;;;;;;;;;;;;15.13;100.00;96233.66;1051444;28;19920;-50
2021/07/19 01:52:43;;;;;;;;;;;;;;;15.13;100.00;96236.31;1050779;28;19939;-45
2021/07/19 01:53:14;;;;;;;;;;;;;;;15.15;100.00;96238.72;1050184;28;19913;-47
2021/07/19 01:53:44;;;;;;;;;;;;;;;15.22;100.00;96231.53;1055130;28;20006;-47
2021/07/19 01:54:14;;;;;;;;;;;;;;;15.18;100.00;96239.09;1057122;28;19912;-48
2021/07/19 01:54:45;;;;;;;;;;;;;;;15.20;100.00;96241.53;1057281;28;19919;-47
2021/07/19 01:55:16;;;;;;;;;;;;;;;15.16;100.00;96243.81;1057084;28;19912;-47
2021/07/19 01:55:46;;;;;;;;;;;;;;;15.15;100.00;96246.69;1049347;28;19966;-49
2021/07/19 01:56:16;;;;;;;;;;;;;;;15.13;100.00;96241.59;1049056;28;20279;-46
2021/07/19 01:56:47;;;;;;;;;;;;;;;15.17;100.00;96242.78;1048983;28;19912;-49
2021/07/19 01:57:17;;;;;;;;;;;;;;;15.17;100.00;96247.25;1048961;28;19951;-48
2021/07/19 01:57:48;;;;;;;;;;;;;;;15.20;100.00;96244.19;1048946;28;20321;-49
2021/07/19 01:58:18;;;;;;;;;;;;;;;15.18;100.00;96249.69;1053229;28;20002;-46
2021/07/19 01:58:49;;;;;;;;;;;;;;;15.19;100.00;96250.53;1049015;28;19917;-49
2021/07/19 01:59:19;;;;;;;;;;;;;;;15.13;100.00;96241.59;1048937;28;19998;-48
2021/07/19 01:59:49;;;;;;;;;;;;;;;15.14;100.00;96240.59;1048899;28;19909;-46
2021/07/19 02:00:20;;;;;;;;;;;;;;;15.15;100.00;96244.03;1040776;28;20389;-47
2021/07/19 02:00:50;;;;;;;;;;;;;;;15.09;100.00;96256.31;1049052;28;19912;-46
2021/07/19 02:01:20;;;;;;;;;;;;;;;15.07;100.00;96248.59;1053155;28;19912;-46
2021/07/19 02:01:51;;;;;;;;;;;;;;;15.07;100.00;96247.78;1049203;28;19938;-50
2021/07/19 02:02:21;;;;;;;;;;;;;;;15.06;100.00;96248.81;1053108;28;19912;-45
2021/07/19 02:02:51;;;;;;;;;;;;;;;15.03;100.00;96249.25;1049148;28;19947;-50
2021/07/19 02:03:22;;;;;;;;;;;;;;;15.08;100.00;96254.72;1048902;28;19909;-47
2021/07/19 02:03:52;;;;;;;;;;;;;;;15.05;100.00;96248.00;1049391;28;20413;-49
2021/07/19 02:04:23;;;;;;;;;;;;;;;15.04;100.00;96258.84;1049103;28;19962;-48
2021/07/19 02:04:53;;;;;;;;;;;;;;;15.03;100.00;96252.72;1049326;28;19919;-49
2021/07/19 02:05:24;;;;;;;;;;;;;;;15.01;100.00;96246.03;1048994;28;19915;-47
2021/07/19 02:05:54;;;;;;;;;;;;;;;14.97;100.00;96250.97;1048842;28;19916;-49
2021/07/19 02:06:25;;;;;;;;;;;;;;;14.98;100.00;96251.75;1044578;28;19995;-47
2021/07/19 02:06:55;;;;;;;;;;;;;;;14.93;100.00;96253.22;1044832;28;19913;-49
2021/07/19 02:07:25;;;;;;;;;;;;;;;14.93;100.00;96249.78;1048667;28;19913;-49
2021/07/19 02:07:56;;;;;;;;;;;;;;;14.98;100.00;96257.06;1048890;28;19908;-47
2021/07/19 02:08:27;;;;;;;;;;;;;;;14.85;100.00;96250.88;1049104;28;20011;-46
2021/07/19 02:09:00;;;;;;;;;;;;;;;14.85;100.00;96253.53;1048763;28;19913;-49
2021/07/19 02:09:31;;;;;;;;;;;;;;;14.83;100.00;96258.22;1048802;28;19909;-45
2021/07/19 02:10:02;;;;;;;;;;;;;;;14.85;100.00;96253.53;1048891;28;19912;-49
2021/07/19 02:10:32;;;;;;;;;;;;;;;14.86;100.00;96254.31;1048747;28;19909;-45
2021/07/19 02:11:03;;;;;;;;;;;;;;;14.85;100.00;96253.53;1048765;28;19912;-49
2021/07/19 02:11:33;;;;;;;;;;;;;;;14.84;100.00;96253.75;1048896;28;19970;-49
2021/07/19 02:12:04;;;;;;;;;;;;;;;14.82;100.00;96259.25;1044884;28;19908;-47
2021/07/19 02:12:35;;;;;;;;;;;;;;;14.79;100.00;96251.75;1048857;28;20364;-47
2021/07/19 02:13:06;;;;;;;;;;;;;;;14.78;100.00;96252.75;1048907;28;19912;-47
2021/07/19 02:13:37;;;;;;;;;;;;;;;14.77;100.00;96253.78;1048688;28;19916;-46
2021/07/19 02:14:08;;;;;;;;;;;;;;;14.83;100.00;96257.41;1048782;28;20433;-48
2021/07/19 02:14:39;;;;;;;;;;;;;;;14.87;100.00;96254.09;1048680;28;19931;-49
2021/07/19 02:15:10;;;;;;;;;;;;;;;14.84;100.00;96245.78;1048844;28;19912;-45
2021/07/19 02:15:40;;;;;;;;;;;;;;;14.90;100.00;96258.16;1049026;28;19956;-46
2021/07/19 02:16:11;;;;;;;;;;;;;;;14.90;100.00;96250.22;1049090;28;19913;-45
2021/07/19 02:16:43;;;;;;;;;;;;;;;14.92;100.00;96250.78;1048938;28;19948;-47
2021/07/19 02:17:13;;;;;;;;;;;;;;;15.01;100.00;96249.47;1048959;28;19978;-47
2021/07/19 02:17:51;;;;;;;;;;;;;;;15.05;100.00;96252.50;1048889;28;19912;-48
2021/07/19 02:18:23;;;;;;;;;;;;;;;15.02;100.00;96248.44;1044818;28;19999;-49
2021/07/19 02:18:53;;;;;;;;;;;;;;;14.94;100.00;96251.41;1044920;28;19913;-45
2021/07/19 02:19:23;;;;;;;;;;;;;;;14.91;100.00;96250.00;1046077;28;19908;-49
2021/07/19 02:19:54;;;;;;;;;;;;;;;14.92;100.00;96251.63;1045017;28;20004;-47
2021/07/19 02:20:24;;;;;;;;;;;;;;;14.84;100.00;96243.94;1044845;28;20365;-49
2021/07/19 02:20:55;;;;;;;;;;;;;;;14.87;100.00;96250.66;1044876;28;19909;-49
2021/07/19 02:21:25;;;;;;;;;;;;;;;14.88;100.00;96252.28;1040657;28;19909;-48
2021/07/19 02:21:56;;;;;;;;;;;;;;;14.84;100.00;96249.25;1044978;28;19909;-46
2021/07/19 02:22:26;;;;;;;;;;;;;;;14.84;100.00;96254.53;1048964;28;19909;-46
2021/07/19 02:22:57;;;;;;;;;;;;;;;14.83;100.00;96247.59;1048854;28;19913;-46
2021/07/19 02:23:27;;;;;;;;;;;;;;;14.82;100.00;96250.47;1048802;28;19909;-48
2021/07/19 02:23:58;;;;;;;;;;;;;;;14.80;100.00;96248.03;1048918;28;19908;-46
2021/07/19 02:24:28;;;;;;;;;;;;;;;14.77;100.00;96248.47;1048848;28;19909;-50
2021/07/19 02:24:59;;;;;;;;;;;;;;;14.79;100.00;96251.75;1049310;28;19913;-45
2021/07/19 02:25:29;;;;;;;;;;;;;;;14.78;100.00;96250.13;1049016;28;19997;-46
2021/07/19 02:26:00;;;;;;;;;;;;;;;14.78;100.00;96250.13;1049033;28;19909;-46
2021/07/19 02:26:30;;;;;;;;;;;;;;;14.75;100.00;96251.34;1048671;28;19917;-46
2021/07/19 02:27:01;;;;;;;;;;;;;;;14.72;100.00;96248.34;1049040;28;19912;-45
2021/07/19 02:27:31;;;;;;;;;;;;;;;14.72;100.00;96248.34;1049250;28;19912;-46
2021/07/19 02:28:01;;;;;;;;;;;;;;;14.75;100.00;96247.91;1048945;28;19912;-46
2021/07/19 02:28:32;;;;;;;;;;;;;;;14.72;100.00;96251.78;1049004;28;20400;-46
2021/07/19 02:29:02;;;;;;;;;;;;;;;14.70;100.00;96245.91;1044809;28;19913;-45
2021/07/19 02:29:33;;;;;;;;;;;;;;;14.72;100.00;96258.94;1044899;28;19964;-45
2021/07/19 02:30:04;;;;;;;;;;;;;;;14.68;100.00;96244.50;1044845;28;19920;-45
2021/07/19 02:30:35;;;;;;;;;;;;;;;14.65;100.00;96244.94;1045021;28;19912;-45
2021/07/19 02:31:05;;;;;;;;;;;;;;;14.64;100.00;96243.31;1048994;28;20372;-45
2021/07/19 02:31:36;;;;;;;;;;;;;;;14.64;100.00;96240.69;1048903;28;19919;-45
2021/07/19 02:32:06;;;;;;;;;;;;;;;14.62;100.00;96245.38;1053038;28;19916;-47
2021/07/19 02:32:37;;;;;;;;;;;;;;;14.60;100.00;96248.19;1053168;28;19916;-44
2021/07/19 02:33:07;;;;;;;;;;;;;;;14.58;100.00;96242.31;1053162;28;19965;-47
2021/07/19 02:33:38;;;;;;;;;;;;;;;14.57;100.00;96249.47;1052925;28;20011;-45
2021/07/19 02:34:08;;;;;;;;;;;;;;;14.55;100.00;96242.75;1048954;28;20061;-45
2021/07/19 02:34:38;;;;;;;;;;;;;;;14.49;100.00;96247.06;1048752;28;20294;-46
2021/07/19 02:35:09;;;;;;;;;;;;;;;14.44;100.00;96244.28;1048992;28;19919;-45
2021/07/19 02:35:41;;;;;;;;;;;;;;;14.44;100.00;96248.75;1049036;28;19913;-46
2021/07/19 02:36:11;;;;;;;;;;;;;;;14.44;100.00;96238.97;1048913;28;20407;-45
2021/07/19 02:36:42;;;;;;;;;;;;;;;14.45;100.00;96242.44;1053178;28;19944;-48
2021/07/19 02:37:12;;;;;;;;;;;;;;;14.46;100.00;96247.50;1048742;28;20006;-47
2021/07/19 02:37:43;;;;;;;;;;;;;;;14.45;100.00;96243.22;1045056;28;19912;-48
2021/07/19 02:38:13;;;;;;;;;;;;;;;14.44;100.00;96249.56;1048945;28;19973;-48
2021/07/19 02:38:46;;;;;;;;;;;;;;;14.44;100.00;96246.91;1049111;28;19913;-45
2021/07/19 02:39:16;;;;;;;;;;;;;;;14.48;100.00;96244.63;1053489;28;19904;-46